createdAt,value
2018-12-31T00:01:51.041Z,38.90
2018-12-31T00:04:17.793Z,38.90
2018-12-31T00:06:44.548Z,42.10
2018-12-31T00:09:11.324Z,36.10
2018-12-31T00:11:38.094Z,34.87
2018-12-31T00:14:04.836Z,40.77
2018-12-31T00:16:31.594Z,35.57
2018-12-31T00:18:58.336Z,36.73
2018-12-31T00:21:25.075Z,33.40
2018-12-31T00:23:51.980Z,32.00
2018-12-31T00:26:18.731Z,33.47
2018-12-31T00:28:45.494Z,33.43
2018-12-31T00:31:12.228Z,26.87
2018-12-31T00:33:39.017Z,31.67
2018-12-31T00:36:05.844Z,30.93
2018-12-31T00:38:32.607Z,32.00
2018-12-31T00:40:59.358Z,30.57
2018-12-31T00:43:26.139Z,30.27
2018-12-31T00:45:52.876Z,35.43
2018-12-31T00:48:19.640Z,32.63
2018-12-31T00:50:46.412Z,33.67
2018-12-31T00:53:13.176Z,34.37
2018-12-31T00:55:39.925Z,36.37
2018-12-31T00:58:06.725Z,33.83
2018-12-31T01:00:33.456Z,33.53
2018-12-31T01:03:00.232Z,32.30
2018-12-31T01:05:26.985Z,36.47
2018-12-31T01:07:53.806Z,28.70
2018-12-31T01:10:20.556Z,32.33
2018-12-31T01:12:47.316Z,39.93
2018-12-31T01:15:14.056Z,32.93
2018-12-31T01:17:40.843Z,35.10
2018-12-31T01:20:07.588Z,31.83
2018-12-31T01:22:34.476Z,31.97
2018-12-31T01:25:01.213Z,28.43
2018-12-31T01:27:27.967Z,30.00
2018-12-31T01:29:54.725Z,29.70
2018-12-31T01:32:21.499Z,30.20
2018-12-31T01:34:48.245Z,29.30
2018-12-31T01:37:14.993Z,29.00
2018-12-31T01:39:41.844Z,30.27
2018-12-31T01:42:08.584Z,36.23
2018-12-31T01:44:35.392Z,34.10
2018-12-31T01:47:02.141Z,37.43
2018-12-31T01:49:28.909Z,37.40
2018-12-31T01:51:55.648Z,31.00
2018-12-31T01:54:22.408Z,33.13
2018-12-31T01:56:49.153Z,30.50
2018-12-31T01:59:15.911Z,30.23
2018-12-31T02:01:42.662Z,31.23
2018-12-31T02:04:09.433Z,29.13
2018-12-31T02:06:36.171Z,29.80
2018-12-31T02:09:03.973Z,31.57
2018-12-31T02:11:30.713Z,31.10
2018-12-31T02:13:57.484Z,31.70
2018-12-31T02:16:24.224Z,30.93
2018-12-31T02:18:51.136Z,31.27
2018-12-31T02:21:17.896Z,26.30
2018-12-31T02:23:44.676Z,30.93
2018-12-31T02:26:11.416Z,28.23
2018-12-31T02:28:38.194Z,29.97
2018-12-31T02:31:04.921Z,25.70
2018-12-31T02:33:31.680Z,36.50
2018-12-31T02:35:58.424Z,40.63
2018-12-31T02:38:25.187Z,36.23
2018-12-31T02:40:51.945Z,36.07
2018-12-31T02:43:18.755Z,47.53
2018-12-31T02:45:45.451Z,46.17
2018-12-31T02:48:12.252Z,45.13
2018-12-31T02:50:39.012Z,46.50
2018-12-31T02:53:05.760Z,45.70
2018-12-31T02:55:32.528Z,39.93
2018-12-31T02:57:59.272Z,42.70
2018-12-31T03:00:26.040Z,36.87
2018-12-31T03:02:52.777Z,34.37
2018-12-31T03:05:19.554Z,34.80
2018-12-31T03:07:46.295Z,33.20
2018-12-31T03:10:13.047Z,32.53
2018-12-31T03:12:39.797Z,29.00
2018-12-31T03:15:06.567Z,41.80
2018-12-31T03:17:33.304Z,39.60
2018-12-31T03:20:00.128Z,40.10
2018-12-31T03:22:26.816Z,35.90
2018-12-31T03:24:53.585Z,35.43
2018-12-31T03:27:20.312Z,36.50
2018-12-31T03:29:47.089Z,34.40
2018-12-31T03:32:13.822Z,35.07
2018-12-31T03:34:40.594Z,41.60
2018-12-31T03:37:07.551Z,45.98
2018-12-31T03:39:34.312Z,34.47
2018-12-31T03:42:01.063Z,41.83
2018-12-31T03:44:27.919Z,36.67
2018-12-31T03:46:54.653Z,31.17
2018-12-31T03:49:21.412Z,28.53
2018-12-31T03:51:48.156Z,29.97
2018-12-31T03:54:14.909Z,31.63
2018-12-31T03:56:41.664Z,29.60
2018-12-31T03:59:08.416Z,30.40
2018-12-31T04:01:35.172Z,32.43
2018-12-31T04:04:01.928Z,34.23
2018-12-31T04:06:28.697Z,31.27
2018-12-31T04:08:55.443Z,34.80
2018-12-31T04:11:22.200Z,37.80
2018-12-31T04:13:48.932Z,32.17
2018-12-31T04:16:15.703Z,34.77
2018-12-31T04:18:42.460Z,32.87
2018-12-31T04:21:09.228Z,25.07
2018-12-31T04:23:35.974Z,27.33
2018-12-31T04:26:02.740Z,33.53
2018-12-31T04:28:29.480Z,36.33
2018-12-31T04:30:57.725Z,31.20
2018-12-31T04:33:24.421Z,32.00
2018-12-31T04:35:51.177Z,31.43
2018-12-31T04:38:17.929Z,39.30
2018-12-31T04:40:44.697Z,28.83
2018-12-31T04:43:11.440Z,35.57
2018-12-31T04:45:38.249Z,32.10
2018-12-31T04:48:05.008Z,29.37
2018-12-31T04:50:31.761Z,34.17
2018-12-31T04:52:58.496Z,31.40
2018-12-31T04:55:25.264Z,29.67
2018-12-31T04:57:52.112Z,28.37
2018-12-31T05:00:18.891Z,29.23
2018-12-31T05:02:45.633Z,28.10
2018-12-31T05:05:12.390Z,24.63
2018-12-31T05:07:39.135Z,26.10
2018-12-31T05:10:05.927Z,22.27
2018-12-31T05:12:32.685Z,23.87
2018-12-31T05:14:59.429Z,26.50
2018-12-31T05:17:26.196Z,20.77
2018-12-31T05:19:52.974Z,19.53
2018-12-31T05:22:19.756Z,25.13
2018-12-31T05:24:46.511Z,19.00
2018-12-31T05:27:13.272Z,23.13
2018-12-31T05:29:40.028Z,25.27
2018-12-31T05:32:06.795Z,21.23
2018-12-31T05:34:33.552Z,17.57
2018-12-31T05:37:00.309Z,15.30
2018-12-31T05:39:27.057Z,16.23
2018-12-31T05:41:53.812Z,17.97
2018-12-31T05:44:20.554Z,16.17
2018-12-31T05:46:47.304Z,17.47
2018-12-31T05:49:14.077Z,18.73
2018-12-31T05:51:40.845Z,18.37
2018-12-31T05:54:07.600Z,16.87
2018-12-31T05:56:34.376Z,21.70
2018-12-31T05:59:01.138Z,22.82
2018-12-31T06:01:27.887Z,23.90
2018-12-31T06:03:54.637Z,17.97
2018-12-31T06:06:21.404Z,19.50
2018-12-31T06:08:48.152Z,18.63
2018-12-31T06:11:14.912Z,20.63
2018-12-31T06:13:41.665Z,17.60
2018-12-31T06:16:08.432Z,16.80
2018-12-31T06:18:35.169Z,16.47
2018-12-31T06:21:02.140Z,14.03
2018-12-31T06:23:28.886Z,14.50
2018-12-31T06:25:55.646Z,16.77
2018-12-31T06:28:22.397Z,15.73
2018-12-31T06:30:49.133Z,14.43
2018-12-31T06:33:15.904Z,14.60
2018-12-31T06:35:42.653Z,15.40
2018-12-31T06:38:09.432Z,17.83
2018-12-31T06:40:36.180Z,18.50
2018-12-31T06:43:02.940Z,18.00
2018-12-31T06:45:29.672Z,17.93
2018-12-31T06:47:56.432Z,14.87
2018-12-31T06:50:23.176Z,16.17
2018-12-31T06:52:49.932Z,17.70
2018-12-31T06:55:16.672Z,18.77
2018-12-31T06:57:43.416Z,16.20
2018-12-31T07:00:10.160Z,17.03
2018-12-31T07:02:36.930Z,15.00
2018-12-31T07:05:03.692Z,16.00
2018-12-31T07:07:30.452Z,15.67
2018-12-31T07:09:57.203Z,14.10
2018-12-31T07:12:23.967Z,16.83
2018-12-31T07:14:50.721Z,13.60
2018-12-31T07:17:17.480Z,14.77
2018-12-31T07:19:44.225Z,14.93
2018-12-31T07:22:10.998Z,17.97
2018-12-31T07:24:37.743Z,20.10
2018-12-31T07:27:04.504Z,15.20
2018-12-31T07:29:31.248Z,16.33
2018-12-31T07:31:58.018Z,15.40
2018-12-31T07:34:24.763Z,17.50
2018-12-31T07:36:51.537Z,18.60
2018-12-31T07:39:18.272Z,20.82
2018-12-31T07:41:45.039Z,19.60
2018-12-31T07:44:11.779Z,15.40
2018-12-31T07:46:39.124Z,17.43
2018-12-31T07:49:06.263Z,18.20
2018-12-31T07:51:33.013Z,15.60
2018-12-31T07:53:59.784Z,17.20
2018-12-31T07:56:26.537Z,18.97
2018-12-31T07:58:53.296Z,21.43
2018-12-31T08:01:20.045Z,22.52
2018-12-31T08:03:46.809Z,19.13
2018-12-31T08:06:13.561Z,16.87
2018-12-31T08:08:40.337Z,13.77
2018-12-31T08:11:07.100Z,16.07
2018-12-31T08:13:33.868Z,23.53
2018-12-31T08:16:00.598Z,20.23
2018-12-31T08:18:27.364Z,17.90
2018-12-31T08:20:54.121Z,15.50
2018-12-31T08:23:21.056Z,17.47
2018-12-31T08:25:47.815Z,19.13
2018-12-31T08:28:14.572Z,15.70
2018-12-31T08:30:41.320Z,18.10
2018-12-31T08:33:08.078Z,14.97
2018-12-31T08:35:34.868Z,13.60
2018-12-31T08:38:01.684Z,16.53
2018-12-31T08:40:28.451Z,16.57
2018-12-31T08:42:55.208Z,15.40
2018-12-31T08:45:22.022Z,15.30
2018-12-31T08:47:48.808Z,14.77
2018-12-31T08:50:15.549Z,15.53
2018-12-31T08:52:42.308Z,13.10
2018-12-31T08:55:09.064Z,15.90
2018-12-31T08:57:35.838Z,15.43
2018-12-31T09:00:03.016Z,14.17
2018-12-31T09:02:29.789Z,15.77
2018-12-31T09:04:56.553Z,19.80
2018-12-31T09:07:23.300Z,20.87
2018-12-31T09:09:50.077Z,22.97
2018-12-31T09:12:16.817Z,25.23
2018-12-31T09:14:43.637Z,22.80
2018-12-31T09:17:10.568Z,21.60
2018-12-31T09:19:37.339Z,19.07
2018-12-31T09:22:04.068Z,18.10
2018-12-31T09:24:30.832Z,19.07
2018-12-31T09:26:57.629Z,23.23
2018-12-31T09:29:24.517Z,24.60
2018-12-31T09:31:51.301Z,23.10
2018-12-31T09:34:18.061Z,22.03
2018-12-31T09:36:45.846Z,21.53
2018-12-31T09:39:11.634Z,19.60
2018-12-31T09:41:38.369Z,21.83
2018-12-31T09:44:05.221Z,19.37
2018-12-31T09:46:31.976Z,20.27
2018-12-31T09:48:58.741Z,18.80
2018-12-31T09:51:25.508Z,20.90
2018-12-31T09:53:52.273Z,19.80
2018-12-31T09:56:19.032Z,21.23
2018-12-31T09:58:45.780Z,18.83
2018-12-31T10:01:12.524Z,15.97
2018-12-31T10:03:39.302Z,15.13
2018-12-31T10:06:06.057Z,15.53
2018-12-31T10:08:33.040Z,14.20
2018-12-31T10:10:59.773Z,16.60
2018-12-31T10:13:26.568Z,13.93
2018-12-31T10:15:53.314Z,15.27
2018-12-31T10:18:20.056Z,13.07
2018-12-31T10:20:46.904Z,12.00
2018-12-31T10:23:13.649Z,12.53
2018-12-31T10:25:40.551Z,13.63
2018-12-31T10:28:07.359Z,9.73
2018-12-31T10:30:34.133Z,12.53
2018-12-31T10:33:00.876Z,11.70
2018-12-31T10:35:27.644Z,13.63
2018-12-31T10:37:54.546Z,13.07
2018-12-31T10:40:21.312Z,13.73
2018-12-31T10:42:48.163Z,12.80
2018-12-31T10:45:14.904Z,11.40
2018-12-31T10:47:41.644Z,11.27
2018-12-31T10:50:08.472Z,13.57
2018-12-31T10:52:35.213Z,11.67
2018-12-31T10:55:01.986Z,11.73
2018-12-31T10:57:28.713Z,11.70
2018-12-31T10:59:55.476Z,11.00
2018-12-31T11:02:23.248Z,11.50
2018-12-31T11:04:48.985Z,10.70
2018-12-31T11:07:15.728Z,10.20
2018-12-31T11:09:42.504Z,11.13
2018-12-31T11:12:09.252Z,11.50
2018-12-31T11:14:36.038Z,15.80
2018-12-31T11:17:02.781Z,15.73
2018-12-31T11:19:29.538Z,17.77
2018-12-31T11:21:56.293Z,11.70
2018-12-31T11:24:23.105Z,17.20
2018-12-31T11:26:49.844Z,12.30
2018-12-31T11:29:16.593Z,14.10
2018-12-31T11:31:43.345Z,10.73
2018-12-31T11:34:10.097Z,11.50
2018-12-31T11:36:36.860Z,12.28
2018-12-31T11:39:05.849Z,13.93
2018-12-31T11:41:32.608Z,12.13
2018-12-31T11:43:59.352Z,10.70
2018-12-31T11:46:26.133Z,12.87
2018-12-31T11:48:52.885Z,10.73
2018-12-31T11:51:19.644Z,11.70
2018-12-31T11:53:46.416Z,11.57
2018-12-31T11:56:13.197Z,14.07
2018-12-31T11:58:39.929Z,10.67
2018-12-31T12:01:06.696Z,10.43
2018-12-31T12:03:33.431Z,12.82
2018-12-31T12:06:00.180Z,12.93
2018-12-31T12:08:26.932Z,11.43
2018-12-31T12:10:53.705Z,12.90
2018-12-31T12:13:20.473Z,12.37
2018-12-31T12:15:47.233Z,12.73
2018-12-31T12:18:13.979Z,11.33
2018-12-31T12:20:40.825Z,12.50
2018-12-31T12:23:07.576Z,11.90
2018-12-31T12:25:34.343Z,11.97
2018-12-31T12:28:01.212Z,10.60
2018-12-31T12:30:27.980Z,10.87
2018-12-31T12:32:54.719Z,11.37
2018-12-31T12:35:21.536Z,15.50
2018-12-31T12:37:48.674Z,13.73
2018-12-31T12:40:15.056Z,14.27
2018-12-31T12:42:41.785Z,15.90
2018-12-31T12:45:08.529Z,15.87
2018-12-31T12:47:35.280Z,13.20
2018-12-31T12:50:02.159Z,14.40
2018-12-31T12:52:28.952Z,12.80
2018-12-31T12:54:55.685Z,12.73
2018-12-31T12:57:22.448Z,14.83
2018-12-31T12:59:49.196Z,14.67
2018-12-31T13:02:15.996Z,15.47
2018-12-31T13:04:42.766Z,13.83
2018-12-31T13:07:09.560Z,23.47
2018-12-31T13:09:36.413Z,20.67
2018-12-31T13:12:03.196Z,15.40
2018-12-31T13:14:29.990Z,15.20
2018-12-31T13:16:56.772Z,14.87
2018-12-31T13:19:23.532Z,16.27
2018-12-31T13:21:50.490Z,13.93
2018-12-31T13:24:18.897Z,18.67
2018-12-31T13:26:44.033Z,14.70
2018-12-31T13:29:10.768Z,16.07
2018-12-31T13:31:37.558Z,12.47
2018-12-31T13:34:04.298Z,13.47
2018-12-31T13:36:31.063Z,16.53
2018-12-31T13:38:57.900Z,15.10
2018-12-31T13:41:24.709Z,15.40
2018-12-31T13:43:51.480Z,13.43
2018-12-31T13:46:18.251Z,19.30
2018-12-31T13:48:44.990Z,18.10
2018-12-31T13:51:11.749Z,17.20
2018-12-31T13:53:38.522Z,16.07
2018-12-31T13:56:05.281Z,14.93
2018-12-31T13:58:32.017Z,21.10
2018-12-31T14:00:58.764Z,21.20
2018-12-31T14:03:25.528Z,19.20
2018-12-31T14:05:52.280Z,19.27
2018-12-31T14:08:19.052Z,22.02
2018-12-31T14:10:45.784Z,17.53
2018-12-31T14:13:12.551Z,20.67
2018-12-31T14:15:39.293Z,18.80
2018-12-31T14:18:06.056Z,19.57
2018-12-31T14:20:32.808Z,23.63
2018-12-31T14:22:59.593Z,21.42
2018-12-31T14:25:26.349Z,23.35
2018-12-31T14:27:53.122Z,23.60
2018-12-31T14:30:19.876Z,22.57
2018-12-31T14:32:46.664Z,25.50
2018-12-31T14:35:13.412Z,21.30
2018-12-31T14:37:40.185Z,24.67
2018-12-31T14:40:07.314Z,24.33
2018-12-31T14:42:34.126Z,27.30
2018-12-31T14:45:00.885Z,29.03
2018-12-31T14:47:27.654Z,26.33
2018-12-31T14:49:54.736Z,25.97
2018-12-31T14:52:21.532Z,25.63
2018-12-31T14:54:48.317Z,24.67
2018-12-31T14:57:15.089Z,26.17
2018-12-31T14:59:41.838Z,28.83
2018-12-31T15:02:08.597Z,28.03
2018-12-31T15:04:35.360Z,28.60
2018-12-31T15:07:02.116Z,25.77
2018-12-31T15:09:28.856Z,26.20
2018-12-31T15:11:55.617Z,25.90
2018-12-31T15:14:22.396Z,25.57
2018-12-31T15:16:49.149Z,25.57
2018-12-31T15:19:15.916Z,28.27
2018-12-31T15:21:42.681Z,33.78
2018-12-31T15:24:09.463Z,28.90
2018-12-31T15:26:36.205Z,29.93
2018-12-31T15:29:03.010Z,30.17
2018-12-31T15:31:29.754Z,37.90
2018-12-31T15:33:56.705Z,29.87
2018-12-31T15:36:23.636Z,31.20
2018-12-31T15:38:50.397Z,30.47
2018-12-31T15:41:17.138Z,34.87
2018-12-31T15:43:43.940Z,28.87
2018-12-31T15:46:10.684Z,35.33
2018-12-31T15:48:37.448Z,30.13
2018-12-31T15:51:04.222Z,29.57
2018-12-31T15:53:30.990Z,31.77
2018-12-31T15:55:58.718Z,30.40
2018-12-31T15:58:24.520Z,32.70
2018-12-31T16:00:52.004Z,31.53
2018-12-31T16:03:18.764Z,34.43
2018-12-31T16:05:45.554Z,39.83
2018-12-31T16:08:12.421Z,35.17
2018-12-31T16:10:39.149Z,36.77
2018-12-31T16:13:05.936Z,39.40
2018-12-31T16:15:32.685Z,39.17
2018-12-31T16:17:59.448Z,35.27
2018-12-31T16:20:26.224Z,32.40
2018-12-31T16:22:52.984Z,44.30
2018-12-31T16:25:19.736Z,39.80
2018-12-31T16:27:46.492Z,38.40
2018-12-31T16:30:13.261Z,37.03
2018-12-31T16:32:40.004Z,43.10
2018-12-31T16:35:06.761Z,49.97
2018-12-31T16:37:33.509Z,51.20
2018-12-31T16:40:00.280Z,49.20
2018-12-31T16:42:27.025Z,69.80
2018-12-31T16:44:53.793Z,71.80
2018-12-31T16:47:20.531Z,63.43
2018-12-31T16:49:47.308Z,84.83
2018-12-31T16:52:14.077Z,86.33
2018-12-31T16:54:40.836Z,58.47
2018-12-31T16:57:07.588Z,227.47
2018-12-31T16:59:34.352Z,336.57
2018-12-31T17:02:01.096Z,234.33
2018-12-31T17:04:27.956Z,208.27
2018-12-31T17:06:54.696Z,156.13
2018-12-31T17:09:21.473Z,66.60
2018-12-31T17:11:48.216Z,63.63
2018-12-31T17:14:14.992Z,63.33
2018-12-31T17:16:41.733Z,46.57
2018-12-31T17:19:08.498Z,39.60
2018-12-31T17:21:35.239Z,44.23
2018-12-31T17:24:02.012Z,40.67
2018-12-31T17:26:28.767Z,50.90
2018-12-31T17:28:55.549Z,47.70
2018-12-31T17:31:22.293Z,44.93
2018-12-31T17:33:49.044Z,40.17
2018-12-31T17:36:15.796Z,45.50
2018-12-31T17:38:42.564Z,53.23
2018-12-31T17:41:09.324Z,45.73
2018-12-31T17:43:36.101Z,41.80
2018-12-31T17:46:02.931Z,48.90
2018-12-31T17:48:29.804Z,49.30
2018-12-31T17:50:56.683Z,44.37
2018-12-31T17:53:23.429Z,54.80
2018-12-31T17:55:50.197Z,51.40
2018-12-31T17:58:16.949Z,45.53
2018-12-31T18:00:43.728Z,44.37
2018-12-31T18:05:37.992Z,43.43
2018-12-31T18:08:04.749Z,36.13
2018-12-31T18:10:31.520Z,52.95
2018-12-31T18:12:58.280Z,55.80
2018-12-31T18:15:25.042Z,53.13
2018-12-31T18:17:51.788Z,46.03
2018-12-31T18:20:18.545Z,44.30
2018-12-31T18:22:45.315Z,39.57
2018-12-31T18:25:12.076Z,41.60
2018-12-31T18:27:38.829Z,41.90
2018-12-31T18:30:07.204Z,43.80
2018-12-31T18:32:33.959Z,42.00
2018-12-31T18:35:00.723Z,40.83
2018-12-31T18:37:27.472Z,44.50
2018-12-31T18:39:58.213Z,47.30
2018-12-31T18:42:20.969Z,42.70
2018-12-31T18:44:47.740Z,39.80
2018-12-31T18:47:14.472Z,41.80
2018-12-31T18:49:41.244Z,41.23
2018-12-31T18:52:07.993Z,40.07
2018-12-31T18:54:34.805Z,39.33
2018-12-31T18:57:01.498Z,42.20
2018-12-31T18:59:28.269Z,50.05
2018-12-31T19:01:55.020Z,45.70
2018-12-31T19:04:21.777Z,49.63
2018-12-31T19:06:48.520Z,38.30
2018-12-31T19:09:15.272Z,41.93
2018-12-31T19:11:42.128Z,44.50
2018-12-31T19:14:08.884Z,42.63
2018-12-31T19:16:35.652Z,40.07
2018-12-31T19:19:02.409Z,45.50
2018-12-31T19:21:29.176Z,39.83
2018-12-31T19:23:55.917Z,39.83
2018-12-31T19:26:22.688Z,38.17
2018-12-31T19:28:49.428Z,41.43
2018-12-31T19:31:16.194Z,35.77
2018-12-31T19:33:42.925Z,36.33
2018-12-31T19:36:09.692Z,33.40
2018-12-31T19:38:36.438Z,43.30
2018-12-31T19:41:03.206Z,40.67
2018-12-31T19:43:29.952Z,45.70
2018-12-31T19:45:56.716Z,53.08
2018-12-31T19:48:23.461Z,48.70
2018-12-31T19:50:50.240Z,40.03
2018-12-31T19:53:16.986Z,39.63
2018-12-31T19:55:43.746Z,39.07
2018-12-31T19:58:10.497Z,40.07
2018-12-31T20:00:37.257Z,44.80
2018-12-31T20:03:03.992Z,35.63
2018-12-31T20:05:30.757Z,40.40
2018-12-31T20:07:57.509Z,41.67
2018-12-31T20:10:24.270Z,36.10
2018-12-31T20:12:51.009Z,38.97
2018-12-31T20:15:17.759Z,41.50
2018-12-31T20:17:44.540Z,38.27
2018-12-31T20:20:11.281Z,38.37
2018-12-31T20:22:38.048Z,41.27
2018-12-31T20:25:04.804Z,43.07
2018-12-31T20:27:31.585Z,42.73
2018-12-31T20:29:58.321Z,42.63
2018-12-31T20:32:25.081Z,47.30
2018-12-31T20:34:51.824Z,39.83
2018-12-31T20:37:18.608Z,42.83
2018-12-31T20:39:45.349Z,41.50
2018-12-31T20:42:12.114Z,39.17
2018-12-31T20:44:38.851Z,40.37
2018-12-31T20:47:05.617Z,39.87
2018-12-31T20:49:32.360Z,39.77
2018-12-31T20:51:59.109Z,44.53
2018-12-31T20:54:25.856Z,41.00
2018-12-31T20:56:52.620Z,42.07
2018-12-31T20:59:19.386Z,45.57
2018-12-31T21:01:46.148Z,41.20
2018-12-31T21:04:12.897Z,40.90
2018-12-31T21:06:39.672Z,51.42
2018-12-31T21:09:07.120Z,43.73
2018-12-31T21:11:35.017Z,44.30
2018-12-31T21:14:01.793Z,37.10
2018-12-31T21:16:28.564Z,41.00
2018-12-31T21:18:55.304Z,44.53
2018-12-31T21:21:22.077Z,41.60
2018-12-31T21:23:48.816Z,39.97
2018-12-31T21:26:15.580Z,41.77
2018-12-31T21:28:42.321Z,42.50
2018-12-31T21:31:09.064Z,41.17
2018-12-31T21:33:35.823Z,40.90
2018-12-31T21:36:02.572Z,43.30
2018-12-31T21:38:29.329Z,46.80
2018-12-31T21:40:56.077Z,43.73
2018-12-31T21:43:22.836Z,45.23
2018-12-31T21:45:49.580Z,40.73
2018-12-31T21:48:16.351Z,39.73
2018-12-31T21:50:43.089Z,38.70
2018-12-31T21:53:09.856Z,57.43
2018-12-31T21:55:36.604Z,39.60
2018-12-31T21:58:03.370Z,36.90
2018-12-31T22:00:30.116Z,38.80
2018-12-31T22:02:57.395Z,37.97
2018-12-31T22:05:23.672Z,38.27
2018-12-31T22:07:50.438Z,44.37
2018-12-31T22:10:17.293Z,39.20
2018-12-31T22:12:44.052Z,41.80
2018-12-31T22:15:10.797Z,40.70
2018-12-31T22:17:37.573Z,38.10
2018-12-31T22:20:05.284Z,44.90
2018-12-31T22:22:32.053Z,42.60
2018-12-31T22:24:58.802Z,54.33
2018-12-31T22:27:25.577Z,50.03
2018-12-31T22:29:52.316Z,44.17
2018-12-31T22:32:19.095Z,41.27
2018-12-31T22:34:45.840Z,41.50
2018-12-31T22:37:12.597Z,42.57
2018-12-31T22:39:39.354Z,42.40
2018-12-31T22:42:06.117Z,58.85
2018-12-31T22:44:32.848Z,46.43
2018-12-31T22:46:59.614Z,46.57
2018-12-31T22:49:26.356Z,38.90
2018-12-31T22:51:53.116Z,34.87
2018-12-31T22:54:19.873Z,42.83
2018-12-31T22:56:46.633Z,48.00
2018-12-31T22:59:13.386Z,53.73
2018-12-31T23:01:40.127Z,356.97
2018-12-31T23:04:06.901Z,138.47
2018-12-31T23:06:34.020Z,483.13
2018-12-31T23:09:00.933Z,602.07
2018-12-31T23:11:27.681Z,435.30
2018-12-31T23:13:54.464Z,368.93
2018-12-31T23:16:23.813Z,513.83
2018-12-31T23:18:50.604Z,369.40
2018-12-31T23:21:17.486Z,442.00
2018-12-31T23:23:44.248Z,263.80
2018-12-31T23:26:10.985Z,330.27
2018-12-31T23:28:37.749Z,361.33
2018-12-31T23:31:04.496Z,472.10
2018-12-31T23:33:31.260Z,171.17
2018-12-31T23:35:58.011Z,105.57
2018-12-31T23:38:24.767Z,116.40
2018-12-31T23:40:51.540Z,86.47
2018-12-31T23:43:18.312Z,96.85
2018-12-31T23:45:45.060Z,86.40
2018-12-31T23:48:11.832Z,82.67
2018-12-31T23:50:38.590Z,113.93
2018-12-31T23:53:05.373Z,153.13
2018-12-31T23:55:32.109Z,127.03
2018-12-31T23:57:58.879Z,125.67
